createdAt,value
2019-02-11T00:00:57.040Z,18.74
2019-02-11T00:01:57.521Z,18.74
2019-02-11T00:02:56.915Z,18.76
2019-02-11T00:04:00.253Z,18.77
2019-02-11T00:04:57.658Z,18.73
2019-02-11T00:05:58.416Z,18.77
2019-02-11T00:06:57.142Z,18.74
2019-02-11T00:07:56.969Z,18.71
2019-02-11T00:08:57.026Z,18.74
2019-02-11T00:09:57.078Z,18.71
2019-02-11T00:10:57.273Z,18.71
2019-02-11T00:11:56.976Z,18.7
2019-02-11T00:12:57.113Z,18.71
2019-02-11T00:13:57.310Z,18.71
2019-02-11T00:14:56.902Z,18.69
2019-02-11T00:15:57.031Z,18.7
2019-02-11T00:16:57.018Z,18.68
2019-02-11T00:17:56.909Z,18.7
2019-02-11T00:18:56.880Z,18.67
2019-02-11T00:19:57.132Z,18.69
2019-02-11T00:20:57.315Z,18.67
2019-02-11T00:21:57.148Z,18.68
2019-02-11T00:22:57.460Z,18.66
2019-02-11T00:23:57.888Z,18.66
2019-02-11T00:24:57.748Z,18.67
2019-02-11T00:25:57.083Z,18.66
2019-02-11T00:26:57.411Z,18.64
2019-02-11T00:27:56.777Z,18.65
2019-02-11T00:28:57.403Z,18.63
2019-02-11T00:29:57.350Z,18.64
2019-02-11T00:30:56.853Z,18.62
2019-02-11T00:31:57.858Z,18.62
2019-02-11T00:32:57.906Z,18.62
2019-02-11T00:33:57.162Z,18.62
2019-02-11T00:34:58.304Z,18.62
2019-02-11T00:35:58.473Z,18.63
2019-02-11T00:36:57.062Z,18.59
2019-02-11T00:37:58.924Z,18.59
2019-02-11T00:38:56.982Z,18.62
2019-02-11T00:39:56.809Z,18.61
2019-02-11T00:40:57.495Z,18.59
2019-02-11T00:41:58.731Z,18.57
2019-02-11T00:42:57.158Z,18.56
2019-02-11T00:43:57.623Z,18.59
2019-02-11T00:44:56.823Z,18.57
2019-02-11T00:45:57.045Z,18.57
2019-02-11T00:46:56.625Z,18.56
2019-02-11T00:47:56.851Z,18.56
2019-02-11T00:48:57.066Z,18.57
2019-02-11T00:49:57.011Z,18.56
2019-02-11T00:50:57.371Z,18.56
2019-02-11T00:51:57.771Z,18.57
2019-02-11T00:52:57.180Z,18.54
2019-02-11T00:53:58.779Z,18.53
2019-02-11T00:54:57.226Z,18.53
2019-02-11T00:55:57.207Z,18.52
2019-02-11T00:56:57.100Z,18.54
2019-02-11T00:57:57.713Z,18.53
2019-02-11T00:58:57.613Z,18.53
2019-02-11T00:59:58.875Z,18.49
2019-02-11T01:00:57.347Z,18.51
2019-02-11T01:01:56.929Z,18.49
2019-02-11T01:02:57.181Z,18.51
2019-02-11T01:03:56.854Z,18.49
2019-02-11T01:04:56.833Z,18.5
2019-02-11T01:05:57.181Z,18.52
2019-02-11T01:06:57.166Z,18.48
2019-02-11T01:07:57.605Z,18.48
2019-02-11T01:08:56.856Z,18.48
2019-02-11T01:09:57.342Z,18.5
2019-02-11T01:10:57.521Z,18.46
2019-02-11T01:11:56.879Z,18.47
2019-02-11T01:12:57.709Z,18.49
2019-02-11T01:13:57.427Z,18.49
2019-02-11T01:14:57.740Z,18.44
2019-02-11T01:15:57.459Z,18.46
2019-02-11T01:16:57.218Z,18.47
2019-02-11T01:17:56.962Z,18.46
2019-02-11T01:18:57.808Z,18.46
2019-02-11T01:19:57.296Z,18.42
2019-02-11T01:20:57.072Z,18.42
2019-02-11T01:21:58.639Z,18.43
2019-02-11T01:22:57.414Z,18.43
2019-02-11T01:23:56.940Z,18.42
2019-02-11T01:24:56.641Z,18.43
2019-02-11T01:25:56.947Z,18.41
2019-02-11T01:26:57.436Z,18.41
2019-02-11T01:27:57.223Z,18.41
2019-02-11T01:28:57.155Z,18.41
2019-02-11T01:29:56.888Z,18.41
2019-02-11T01:30:57.352Z,18.4
2019-02-11T01:31:57.442Z,18.41
2019-02-11T01:32:56.840Z,18.41
2019-02-11T01:33:57.088Z,18.41
2019-02-11T01:34:57.361Z,18.38
2019-02-11T01:35:57.162Z,18.4
2019-02-11T01:36:57.198Z,18.4
2019-02-11T01:37:57.005Z,18.38
2019-02-11T01:38:57.397Z,18.39
2019-02-11T01:39:57.209Z,18.37
2019-02-11T01:40:57.308Z,18.39
2019-02-11T01:41:57.453Z,18.38
2019-02-11T01:42:57.387Z,18.35
2019-02-11T01:43:56.712Z,18.37
2019-02-11T01:44:57.324Z,18.37
2019-02-11T01:45:57.843Z,18.37
2019-02-11T01:46:56.766Z,18.35
2019-02-11T01:47:58.842Z,18.34
2019-02-11T01:48:56.988Z,18.35
2019-02-11T01:49:56.895Z,18.34
2019-02-11T01:50:58.858Z,18.36
2019-02-11T01:51:56.683Z,18.33
2019-02-11T01:52:56.736Z,18.34
2019-02-11T01:53:56.635Z,18.34
2019-02-11T01:54:57.123Z,18.34
2019-02-11T01:55:56.968Z,18.33
2019-02-11T01:56:56.840Z,18.33
2019-02-11T01:57:57.216Z,18.29
2019-02-11T01:58:57.070Z,18.33
2019-02-11T01:59:56.786Z,18.33
2019-02-11T02:00:56.983Z,18.3
2019-02-11T02:01:56.965Z,18.32
2019-02-11T02:02:56.948Z,18.32
2019-02-11T02:03:57.328Z,18.29
2019-02-11T02:04:56.975Z,18.29
2019-02-11T02:05:57.295Z,18.28
2019-02-11T02:06:57.936Z,18.28
2019-02-11T02:07:58.044Z,18.27
2019-02-11T02:08:57.326Z,18.29
2019-02-11T02:09:56.869Z,18.28
2019-02-11T02:10:56.870Z,18.29
2019-02-11T02:11:57.458Z,18.27
2019-02-11T02:12:58.721Z,18.28
2019-02-11T02:13:57.011Z,18.27
2019-02-11T02:14:56.826Z,18.26
2019-02-11T02:15:57.450Z,18.27
2019-02-11T02:16:57.390Z,18.24
2019-02-11T02:17:57.195Z,18.27
2019-02-11T02:18:56.857Z,18.26
2019-02-11T02:19:57.271Z,18.26
2019-02-11T02:20:57.181Z,18.25
2019-02-11T02:21:57.511Z,18.24
2019-02-11T02:22:57.002Z,18.24
2019-02-11T02:23:56.811Z,18.25
2019-02-11T02:24:58.845Z,18.24
2019-02-11T02:25:57.383Z,18.24
2019-02-11T02:26:56.919Z,18.22
2019-02-11T02:27:56.965Z,18.24
2019-02-11T02:28:56.929Z,18.24
2019-02-11T02:29:57.570Z,18.23
2019-02-11T02:30:57.007Z,18.23
2019-02-11T02:31:56.757Z,18.22
2019-02-11T02:32:57.085Z,18.24
2019-02-11T02:33:57.293Z,18.21
2019-02-11T02:34:57.125Z,18.21
2019-02-11T02:35:57.671Z,18.22
2019-02-11T02:36:56.808Z,18.19
2019-02-11T02:37:57.225Z,18.18
2019-02-11T02:38:57.442Z,18.21
2019-02-11T02:39:56.949Z,18.21
2019-02-11T02:40:56.897Z,18.2
2019-02-11T02:41:56.714Z,18.21
2019-02-11T02:42:56.901Z,18.2
2019-02-11T02:43:57.503Z,18.2
2019-02-11T02:44:57.212Z,18.18
2019-02-11T02:45:57.411Z,18.19
2019-02-11T02:46:57.179Z,18.19
2019-02-11T02:47:56.883Z,18.17
2019-02-11T02:48:58.134Z,18.17
2019-02-11T02:49:57.939Z,18.17
2019-02-11T02:50:57.434Z,18.17
2019-02-11T02:51:57.130Z,18.17
2019-02-11T02:52:57.037Z,18.15
2019-02-11T02:53:57.735Z,18.14
2019-02-11T02:54:56.670Z,18.17
2019-02-11T02:55:58.752Z,18.15
2019-02-11T02:56:57.375Z,18.13
2019-02-11T02:57:58.741Z,18.12
2019-02-11T02:58:57.417Z,18.12
2019-02-11T02:59:57.160Z,18.12
2019-02-11T03:00:57.213Z,18.12
2019-02-11T03:01:56.925Z,18.12
2019-02-11T03:02:57.099Z,18.11
2019-02-11T03:03:56.726Z,18.11
2019-02-11T03:04:56.956Z,18.11
2019-02-11T03:05:57.359Z,18.11
2019-02-11T03:06:58.662Z,18.12
2019-02-11T03:07:57.686Z,18.09
2019-02-11T03:08:57.294Z,18.12
2019-02-11T03:09:57.656Z,18.11
2019-02-11T03:10:56.818Z,18.08
2019-02-11T03:11:56.981Z,18.08
2019-02-11T03:12:57.486Z,18.07
2019-02-11T03:14:06.775Z,18.09
2019-02-11T03:14:57.063Z,18.09
2019-02-11T03:15:57.016Z,18.1
2019-02-11T03:16:57.387Z,18.07
2019-02-11T03:17:57.001Z,18.07
2019-02-11T03:18:57.367Z,18.08
2019-02-11T03:19:56.712Z,18.08
2019-02-11T03:20:56.859Z,18.06
2019-02-11T03:21:58.849Z,18.08
2019-02-11T03:22:58.716Z,18.07
2019-02-11T03:23:57.912Z,18.05
2019-02-11T03:24:57.095Z,18.05
2019-02-11T03:25:57.449Z,18.06
2019-02-11T03:26:56.974Z,18.04
2019-02-11T03:27:56.786Z,18.04
2019-02-11T03:28:57.039Z,18.04
2019-02-11T03:29:56.982Z,18.04
2019-02-11T03:30:56.927Z,18.05
2019-02-11T03:32:00.429Z,18.04
2019-02-11T03:32:56.787Z,18.04
2019-02-11T03:33:56.989Z,18.02
2019-02-11T03:34:57.653Z,18.02
2019-02-11T03:35:56.702Z,18.02
2019-02-11T03:36:57.036Z,18.02
2019-02-11T03:37:57.007Z,17.99
2019-02-11T03:38:56.779Z,18.03
2019-02-11T03:39:56.923Z,17.99
2019-02-11T03:40:57.010Z,17.99
2019-02-11T03:41:57.064Z,18
2019-02-11T03:42:57.081Z,17.99
2019-02-11T03:43:58.663Z,17.99
2019-02-11T03:44:56.919Z,18.02
2019-02-11T03:45:57.204Z,17.98
2019-02-11T03:46:56.816Z,17.99
2019-02-11T03:47:57.616Z,17.98
2019-02-11T03:48:57.278Z,17.99
2019-02-11T03:49:56.962Z,17.98
2019-02-11T03:50:56.929Z,17.97
2019-02-11T03:51:57.152Z,17.99
2019-02-11T03:52:58.371Z,17.97
2019-02-11T03:53:57.440Z,17.95
2019-02-11T03:54:57.069Z,17.95
2019-02-11T03:55:57.125Z,17.98
2019-02-11T03:56:58.780Z,17.96
2019-02-11T03:57:57.193Z,17.95
2019-02-11T03:58:56.928Z,17.95
2019-02-11T03:59:56.904Z,17.96
2019-02-11T04:00:57.147Z,17.96
2019-02-11T04:01:58.769Z,17.94
2019-02-11T04:02:57.128Z,17.96
2019-02-11T04:03:56.817Z,17.95
2019-02-11T04:04:56.926Z,17.94
2019-02-11T04:05:56.745Z,17.95
2019-02-11T04:06:57.755Z,17.93
2019-02-11T04:07:57.154Z,17.92
2019-02-11T04:08:56.965Z,17.96
2019-02-11T04:09:56.793Z,17.93
2019-02-11T04:10:57.287Z,17.93
2019-02-11T04:11:57.539Z,17.93
2019-02-11T04:12:57.321Z,17.94
2019-02-11T04:13:56.963Z,17.94
2019-02-11T04:14:57.056Z,17.92
2019-02-11T04:15:57.257Z,17.92
2019-02-11T04:16:56.699Z,17.92
2019-02-11T04:17:56.905Z,17.93
2019-02-11T04:18:57.222Z,17.91
2019-02-11T04:19:56.855Z,17.9
2019-02-11T04:20:57.186Z,17.91
2019-02-11T04:21:56.772Z,17.91
2019-02-11T04:22:56.834Z,17.89
2019-02-11T04:23:57.159Z,17.91
2019-02-11T04:24:58.309Z,17.91
2019-02-11T04:25:57.394Z,17.89
2019-02-11T04:26:57.243Z,17.92
2019-02-11T04:27:57.461Z,17.88
2019-02-11T04:28:57.122Z,17.88
2019-02-11T04:29:57.088Z,17.88
2019-02-11T04:30:56.940Z,17.89
2019-02-11T04:31:57.315Z,17.88
2019-02-11T04:32:57.106Z,17.88
2019-02-11T04:33:58.500Z,17.89
2019-02-11T04:34:57.655Z,17.88
2019-02-11T04:35:57.170Z,17.87
2019-02-11T04:36:56.870Z,17.88
2019-02-11T04:37:56.923Z,17.87
2019-02-11T04:38:57.158Z,17.87
2019-02-11T04:39:57.378Z,17.88
2019-02-11T04:40:57.709Z,17.85
2019-02-11T04:41:56.986Z,17.85
2019-02-11T04:42:57.154Z,17.87
2019-02-11T04:43:56.683Z,17.88
2019-02-11T04:44:57.728Z,17.87
2019-02-11T04:45:56.797Z,17.88
2019-02-11T04:46:57.129Z,17.88
2019-02-11T04:47:56.965Z,17.88
2019-02-11T04:48:57.231Z,17.85
2019-02-11T04:49:56.863Z,17.88
2019-02-11T04:50:56.935Z,17.88
2019-02-11T04:51:59.179Z,17.88
2019-02-11T04:52:57.472Z,17.9
2019-02-11T04:53:57.788Z,17.91
2019-02-11T04:54:56.686Z,17.91
2019-02-11T04:55:57.266Z,17.91
2019-02-11T04:56:58.610Z,17.9
2019-02-11T04:57:56.663Z,17.92
2019-02-11T04:58:57.297Z,17.93
2019-02-11T04:59:57.411Z,17.94
2019-02-11T05:00:58.690Z,17.95
2019-02-11T05:01:56.885Z,17.93
2019-02-11T05:02:57.341Z,17.96
2019-02-11T05:03:57.336Z,17.98
2019-02-11T05:04:56.939Z,17.99
2019-02-11T05:05:56.966Z,17.99
2019-02-11T05:06:57.171Z,18.02
2019-02-11T05:07:57.689Z,18
2019-02-11T05:08:57.582Z,18.04
2019-02-11T05:09:57.600Z,18.04
2019-02-11T05:10:56.684Z,18.06
2019-02-11T05:11:57.334Z,18.07
2019-02-11T05:12:56.809Z,18.08
2019-02-11T05:13:57.063Z,18.08
2019-02-11T05:14:57.321Z,18.1
2019-02-11T05:15:56.696Z,18.11
2019-02-11T05:16:57.049Z,18.13
2019-02-11T05:17:57.471Z,18.12
2019-02-11T05:18:57.191Z,18.14
2019-02-11T05:19:57.184Z,18.18
2019-02-11T05:20:56.918Z,18.19
2019-02-11T05:21:56.719Z,18.22
2019-02-11T05:22:57.176Z,18.21
2019-02-11T05:23:56.744Z,18.23
2019-02-11T05:24:57.920Z,18.23
2019-02-11T05:25:56.898Z,18.25
2019-02-11T05:26:57.621Z,18.28
2019-02-11T05:27:57.191Z,18.28
2019-02-11T05:28:56.827Z,18.3
2019-02-11T05:29:57.732Z,18.3
2019-02-11T05:30:57.177Z,18.33
2019-02-11T05:31:57.243Z,18.33
2019-02-11T05:32:57.057Z,18.35
2019-02-11T05:33:56.792Z,18.33
2019-02-11T05:34:57.100Z,18.36
2019-02-11T05:35:57.367Z,18.37
2019-02-11T05:36:57.217Z,18.38
2019-02-11T05:37:56.832Z,18.4
2019-02-11T05:38:56.719Z,18.4
2019-02-11T05:39:56.906Z,18.44
2019-02-11T05:40:56.694Z,18.44
2019-02-11T05:41:56.988Z,18.44
2019-02-11T05:42:57.297Z,18.44
2019-02-11T05:43:56.741Z,18.46
2019-02-11T05:44:56.974Z,18.49
2019-02-11T05:45:57.062Z,18.49
2019-02-11T05:46:56.766Z,18.5
2019-02-11T05:47:57.342Z,18.52
2019-02-11T05:48:57.102Z,18.53
2019-02-11T05:49:57.290Z,18.53
2019-02-11T05:50:57.618Z,18.53
2019-02-11T05:51:56.720Z,18.55
2019-02-11T05:52:56.913Z,18.54
2019-02-11T05:53:56.754Z,18.56
2019-02-11T05:54:56.993Z,18.58
2019-02-11T05:55:57.001Z,18.59
2019-02-11T05:56:57.124Z,18.62
2019-02-11T05:57:57.214Z,18.62
2019-02-11T05:58:58.738Z,18.62
2019-02-11T05:59:57.552Z,18.62
2019-02-11T06:00:56.896Z,18.63
2019-02-11T06:01:57.223Z,18.66
2019-02-11T06:02:56.626Z,18.66
2019-02-11T06:03:56.952Z,18.66
2019-02-11T06:04:56.839Z,18.7
2019-02-11T06:05:57.265Z,18.69
2019-02-11T06:06:57.589Z,18.68
2019-02-11T06:07:57.905Z,18.71
2019-02-11T06:08:56.796Z,18.71
2019-02-11T06:09:56.789Z,18.71
2019-02-11T06:10:57.005Z,18.74
2019-02-11T06:11:56.946Z,18.73
2019-02-11T06:12:57.738Z,18.72
2019-02-11T06:13:56.583Z,18.76
2019-02-11T06:15:05.067Z,18.77
2019-02-11T06:15:57.324Z,18.77
2019-02-11T06:16:56.702Z,18.77
2019-02-11T06:17:57.051Z,18.8
2019-02-11T06:18:57.469Z,18.78
2019-02-11T06:19:56.821Z,18.82
2019-02-11T06:20:56.801Z,18.82
2019-02-11T06:21:57.589Z,18.83
2019-02-11T06:22:57.621Z,18.82
2019-02-11T06:23:57.750Z,18.82
2019-02-11T06:24:57.105Z,18.82
2019-02-11T06:25:56.860Z,18.84
2019-02-11T06:26:58.037Z,18.84
2019-02-11T06:27:58.582Z,18.84
2019-02-11T06:28:57.215Z,18.83
2019-02-11T06:29:58.516Z,18.84
2019-02-11T06:30:57.052Z,18.82
2019-02-11T06:31:57.110Z,18.82
2019-02-11T06:32:57.102Z,18.83
2019-02-11T06:33:57.385Z,18.83
2019-02-11T06:34:56.795Z,18.82
2019-02-11T06:35:56.874Z,18.83
2019-02-11T06:36:57.176Z,18.81
2019-02-11T06:37:56.793Z,18.82
2019-02-11T06:38:57.008Z,18.82
2019-02-11T06:39:56.872Z,18.82
2019-02-11T06:40:57.853Z,18.82
2019-02-11T06:41:57.394Z,18.82
2019-02-11T06:42:57.001Z,18.82
2019-02-11T06:43:56.948Z,18.81
2019-02-11T06:44:57.805Z,18.82
2019-02-11T06:45:56.925Z,18.79
2019-02-11T06:46:56.862Z,18.8
2019-02-11T06:47:56.790Z,18.8
2019-02-11T06:48:57.270Z,18.79
2019-02-11T06:49:56.701Z,18.8
2019-02-11T06:50:56.833Z,18.78
2019-02-11T06:51:57.498Z,18.79
2019-02-11T06:52:56.729Z,18.79
2019-02-11T06:53:56.833Z,18.78
2019-02-11T06:54:56.878Z,18.77
2019-02-11T06:55:56.909Z,18.78
2019-02-11T06:56:57.744Z,18.78
2019-02-11T06:57:56.988Z,18.77
2019-02-11T06:58:56.947Z,18.76
2019-02-11T06:59:56.809Z,18.77
2019-02-11T07:00:57.998Z,18.78
2019-02-11T07:01:56.970Z,18.76
2019-02-11T07:02:57.048Z,18.77
2019-02-11T07:03:56.745Z,18.77
2019-02-11T07:04:57.423Z,18.74
2019-02-11T07:05:56.777Z,18.76
2019-02-11T07:06:56.870Z,18.74
2019-02-11T07:07:58.717Z,18.77
2019-02-11T07:08:56.892Z,18.76
2019-02-11T07:09:57.200Z,18.72
2019-02-11T07:10:56.827Z,18.74
2019-02-11T07:11:57.061Z,18.72
2019-02-11T07:12:56.811Z,18.72
2019-02-11T07:13:57.248Z,18.74
2019-02-11T07:14:56.633Z,18.72
2019-02-11T07:15:56.699Z,18.72
2019-02-11T07:16:56.696Z,18.73
2019-02-11T07:17:56.760Z,18.72
2019-02-11T07:18:56.759Z,18.73
2019-02-11T07:19:56.657Z,18.71
2019-02-11T07:20:56.854Z,18.72
2019-02-11T07:21:57.566Z,18.72
2019-02-11T07:22:57.085Z,18.72
2019-02-11T07:23:56.965Z,18.71
2019-02-11T07:24:57.035Z,18.71
2019-02-11T07:25:56.905Z,18.71
2019-02-11T07:26:57.058Z,18.7
2019-02-11T07:27:57.412Z,18.69
2019-02-11T07:28:57.113Z,18.7
2019-02-11T07:29:56.954Z,18.7
2019-02-11T07:30:56.549Z,18.7
2019-02-11T07:31:56.774Z,18.7
2019-02-11T07:32:57.163Z,18.7
2019-02-11T07:33:56.822Z,18.71
2019-02-11T07:34:56.731Z,18.72
2019-02-11T07:35:57.129Z,18.72
2019-02-11T07:36:57.138Z,18.72
2019-02-11T07:37:56.646Z,18.72
2019-02-11T07:38:57.226Z,18.72
2019-02-11T07:39:57.333Z,18.73
2019-02-11T07:40:57.112Z,18.72
2019-02-11T07:41:57.244Z,18.71
2019-02-11T07:42:57.245Z,18.72
2019-02-11T07:43:56.814Z,18.72
2019-02-11T07:44:57.102Z,18.72
2019-02-11T07:45:56.708Z,18.72
2019-02-11T07:46:57.331Z,18.74
2019-02-11T07:47:56.676Z,18.72
2019-02-11T07:48:56.721Z,18.73
2019-02-11T07:49:58.680Z,18.73
2019-02-11T07:50:56.611Z,18.7
2019-02-11T07:51:57.178Z,18.71
2019-02-11T07:52:57.267Z,18.69
2019-02-11T07:53:56.975Z,18.7
2019-02-11T07:54:56.714Z,18.72
2019-02-11T07:55:57.321Z,18.72
2019-02-11T07:56:56.889Z,18.72
2019-02-11T07:57:57.464Z,18.73
2019-02-11T07:58:56.904Z,18.73
2019-02-11T07:59:57.630Z,18.72
2019-02-11T08:00:57.058Z,18.72
2019-02-11T08:01:57.318Z,18.74
2019-02-11T08:02:57.794Z,18.73
2019-02-11T08:03:57.383Z,18.74
2019-02-11T08:04:57.322Z,18.74
2019-02-11T08:05:56.812Z,18.72
2019-02-11T08:06:56.962Z,18.71
2019-02-11T08:07:57.638Z,18.76
2019-02-11T08:08:56.703Z,18.76
2019-02-11T08:09:57.223Z,18.74
2019-02-11T08:10:56.763Z,18.77
2019-02-11T08:11:57.291Z,18.77
2019-02-11T08:12:56.732Z,18.77
2019-02-11T08:13:56.751Z,18.77
2019-02-11T08:14:56.858Z,18.77
2019-02-11T08:15:57.684Z,18.78
2019-02-11T08:16:56.798Z,18.77
2019-02-11T08:17:58.468Z,18.78
2019-02-11T08:18:56.994Z,18.78
2019-02-11T08:19:58.698Z,18.78
2019-02-11T08:20:57.433Z,18.79
2019-02-11T08:21:57.802Z,18.81
2019-02-11T08:22:57.052Z,18.79
2019-02-11T08:23:56.862Z,18.79
2019-02-11T08:24:57.468Z,18.8
2019-02-11T08:25:57.164Z,18.79
2019-02-11T08:26:56.988Z,18.8
2019-02-11T08:27:56.770Z,18.8
2019-02-11T08:28:57.071Z,18.81
2019-02-11T08:29:57.101Z,18.81
2019-02-11T08:30:57.018Z,18.81
2019-02-11T08:31:56.872Z,18.81
2019-02-11T08:32:57.405Z,18.81
2019-02-11T08:33:58.137Z,18.82
2019-02-11T08:34:57.615Z,18.81
2019-02-11T08:35:57.175Z,18.82
2019-02-11T08:36:57.021Z,18.82
2019-02-11T08:37:58.519Z,18.82
2019-02-11T08:38:56.943Z,18.82
2019-02-11T08:39:57.255Z,18.82
2019-02-11T08:40:56.741Z,18.82
2019-02-11T08:41:56.855Z,18.81
2019-02-11T08:42:57.785Z,18.82
2019-02-11T08:43:58.594Z,18.82
2019-02-11T08:44:57.184Z,18.83
2019-02-11T08:45:57.534Z,18.82
2019-02-11T08:46:56.923Z,18.82
2019-02-11T08:47:56.753Z,18.8
2019-02-11T08:48:57.196Z,18.81
2019-02-11T08:49:56.699Z,18.78
2019-02-11T08:50:56.645Z,18.79
2019-02-11T08:51:57.476Z,18.78
2019-02-11T08:52:57.238Z,18.8
2019-02-11T08:53:57.496Z,18.78
2019-02-11T08:54:57.533Z,18.8
2019-02-11T08:55:57.165Z,18.8
2019-02-11T08:56:57.729Z,18.79
2019-02-11T08:57:56.915Z,18.8
2019-02-11T08:58:56.755Z,18.8
2019-02-11T08:59:57.428Z,18.81
2019-02-11T09:00:57.403Z,18.8
2019-02-11T09:01:58.507Z,18.78
2019-02-11T09:02:58.595Z,18.78
2019-02-11T09:03:57.242Z,18.78
2019-02-11T09:04:56.681Z,18.8
2019-02-11T09:05:56.763Z,18.77
2019-02-11T09:06:58.714Z,18.78
2019-02-11T09:07:57.178Z,18.77
2019-02-11T09:08:57.393Z,18.77
2019-02-11T09:09:56.755Z,18.79
2019-02-11T09:10:56.981Z,18.77
2019-02-11T09:11:56.967Z,18.77
2019-02-11T09:12:57.096Z,18.77
2019-02-11T09:13:56.928Z,18.77
2019-02-11T09:14:56.861Z,18.77
2019-02-11T09:15:56.553Z,18.77
2019-02-11T09:16:57.238Z,18.77
2019-02-11T09:17:57.449Z,18.77
2019-02-11T09:18:56.923Z,18.77
2019-02-11T09:19:57.247Z,18.77
2019-02-11T09:20:57.144Z,18.76
2019-02-11T09:21:56.858Z,18.77
2019-02-11T09:22:56.754Z,18.76
2019-02-11T09:23:56.768Z,18.76
2019-02-11T09:24:56.988Z,18.72
2019-02-11T09:25:57.707Z,18.77
2019-02-11T09:26:57.011Z,18.76
2019-02-11T09:27:57.004Z,18.73
2019-02-11T09:28:56.692Z,18.73
2019-02-11T09:29:57.013Z,18.72
2019-02-11T09:30:57.334Z,18.72
2019-02-11T09:31:57.560Z,18.72
2019-02-11T09:32:57.031Z,18.72
2019-02-11T09:33:56.937Z,18.74
2019-02-11T09:34:57.633Z,18.74
2019-02-11T09:35:57.455Z,18.73
2019-02-11T09:36:57.805Z,18.72
2019-02-11T09:37:56.820Z,18.73
2019-02-11T09:38:56.792Z,18.73
2019-02-11T09:39:57.032Z,18.73
2019-02-11T09:40:57.196Z,18.73
2019-02-11T09:41:57.452Z,18.73
2019-02-11T09:42:56.946Z,18.73
2019-02-11T09:43:57.036Z,18.72
2019-02-11T09:44:57.329Z,18.72
2019-02-11T09:46:04.390Z,18.77
2019-02-11T09:46:57.579Z,18.76
2019-02-11T09:47:57.055Z,18.77
2019-02-11T09:48:57.163Z,18.78
2019-02-11T09:49:56.967Z,18.78
2019-02-11T09:50:56.777Z,18.77
2019-02-11T09:51:57.089Z,18.81
2019-02-11T09:52:56.983Z,18.82
2019-02-11T09:53:57.210Z,18.82
2019-02-11T09:54:56.715Z,18.82
2019-02-11T09:55:57.216Z,18.84
2019-02-11T09:56:56.732Z,18.85
2019-02-11T09:57:56.871Z,18.86
2019-02-11T09:58:56.976Z,18.87
2019-02-11T09:59:57.449Z,18.91
2019-02-11T10:00:57.456Z,18.94
2019-02-11T10:01:57.121Z,18.92
2019-02-11T10:02:57.457Z,18.95
2019-02-11T10:03:56.639Z,18.98
2019-02-11T10:04:57.667Z,18.98
2019-02-11T10:05:57.090Z,19
2019-02-11T10:06:57.073Z,19.02
2019-02-11T10:07:57.080Z,19.01
2019-02-11T10:08:57.104Z,19.05
2019-02-11T10:09:56.971Z,19.05
2019-02-11T10:10:57.417Z,19.06
2019-02-11T10:11:57.205Z,19.09
2019-02-11T10:12:57.209Z,19.11
2019-02-11T10:13:56.934Z,19.09
2019-02-11T10:14:56.792Z,19.13
2019-02-11T10:15:56.944Z,19.14
2019-02-11T10:16:57.156Z,19.15
2019-02-11T10:17:57.141Z,19.14
2019-02-11T10:18:56.630Z,19.16
2019-02-11T10:19:56.788Z,19.17
2019-02-11T10:20:56.677Z,19.17
2019-02-11T10:21:56.583Z,19.17
2019-02-11T10:22:57.301Z,19.21
2019-02-11T10:23:56.801Z,19.24
2019-02-11T10:24:57.100Z,19.25
2019-02-11T10:25:56.855Z,19.25
2019-02-11T10:26:56.541Z,19.27
2019-02-11T10:27:57.182Z,19.29
2019-02-11T10:28:56.756Z,19.29
2019-02-11T10:29:56.938Z,19.29
2019-02-11T10:30:57.261Z,19.3
2019-02-11T10:31:58.490Z,19.29
2019-02-11T10:32:58.541Z,19.32
2019-02-11T10:33:57.056Z,19.32
2019-02-11T10:34:56.913Z,19.35
2019-02-11T10:35:56.791Z,19.37
2019-02-11T10:36:56.876Z,19.38
2019-02-11T10:37:57.046Z,19.39
2019-02-11T10:38:56.663Z,19.43
2019-02-11T10:39:56.867Z,19.39
2019-02-11T10:40:56.811Z,19.42
2019-02-11T10:41:57.246Z,19.43
2019-02-11T10:42:57.129Z,19.45
2019-02-11T10:43:57.609Z,19.45
2019-02-11T10:44:57.793Z,19.47
2019-02-11T10:45:56.905Z,19.48
2019-02-11T10:46:56.732Z,19.51
2019-02-11T10:47:57.045Z,19.51
2019-02-11T10:48:56.831Z,19.51
2019-02-11T10:49:56.685Z,19.53
2019-02-11T10:50:56.983Z,19.54
2019-02-11T10:51:56.897Z,19.55
2019-02-11T10:52:56.963Z,19.56
2019-02-11T10:53:57.753Z,19.56
2019-02-11T10:54:57.028Z,19.58
2019-02-11T10:55:56.775Z,19.58
2019-02-11T10:56:58.495Z,19.62
2019-02-11T10:57:57.031Z,19.58
2019-02-11T10:58:57.143Z,19.61
2019-02-11T10:59:56.965Z,19.65
2019-02-11T11:00:57.891Z,19.65
2019-02-11T11:01:56.754Z,19.65
2019-02-11T11:02:56.718Z,19.63
2019-02-11T11:03:56.769Z,19.63
2019-02-11T11:04:56.897Z,19.68
2019-02-11T11:05:57.431Z,19.67
2019-02-11T11:06:56.583Z,19.67
2019-02-11T11:07:56.630Z,19.68
2019-02-11T11:08:56.696Z,19.7
2019-02-11T11:09:56.789Z,19.72
2019-02-11T11:10:57.151Z,19.72
2019-02-11T11:11:56.593Z,19.72
2019-02-11T11:12:56.482Z,19.73
2019-02-11T11:13:56.649Z,19.75
2019-02-11T11:14:56.847Z,19.75
2019-02-11T11:15:56.724Z,19.76
2019-02-11T11:16:57.090Z,19.75
2019-02-11T11:17:56.850Z,19.75
2019-02-11T11:18:57.078Z,19.76
2019-02-11T11:19:56.797Z,19.79
2019-02-11T11:20:58.431Z,19.8
2019-02-11T11:21:57.100Z,19.81
2019-02-11T11:22:57.207Z,19.8
2019-02-11T11:23:58.333Z,19.8
2019-02-11T11:24:57.007Z,19.81
2019-02-11T11:25:56.909Z,19.82
2019-02-11T11:26:57.040Z,19.82
2019-02-11T11:27:57.029Z,19.83
2019-02-11T11:28:57.205Z,19.82
2019-02-11T11:29:56.766Z,19.82
2019-02-11T11:30:57.152Z,19.82
2019-02-11T11:31:58.163Z,19.85
2019-02-11T11:32:57.876Z,19.84
2019-02-11T11:33:56.433Z,19.85
2019-02-11T11:34:56.713Z,19.87
2019-02-11T11:35:56.655Z,19.88
2019-02-11T11:36:56.909Z,19.88
2019-02-11T11:37:57.352Z,19.89
2019-02-11T11:38:57.047Z,19.89
2019-02-11T11:39:57.048Z,19.87
2019-02-11T11:40:57.032Z,19.91
2019-02-11T11:41:56.940Z,19.9
2019-02-11T11:42:56.947Z,19.91
2019-02-11T11:43:56.715Z,19.91
2019-02-11T11:44:57.292Z,19.91
2019-02-11T11:45:56.871Z,19.89
2019-02-11T11:46:56.872Z,19.91
2019-02-11T11:47:56.794Z,19.88
2019-02-11T11:48:56.995Z,19.89
2019-02-11T11:49:56.992Z,19.89
2019-02-11T11:50:56.911Z,19.89
2019-02-11T11:51:56.946Z,19.89
2019-02-11T11:52:57.022Z,19.87
2019-02-11T11:53:56.747Z,19.89
2019-02-11T11:54:56.942Z,19.9
2019-02-11T11:55:57.065Z,19.92
2019-02-11T11:56:59.861Z,19.89
2019-02-11T11:57:57.011Z,19.92
2019-02-11T11:58:57.071Z,19.92
2019-02-11T11:59:56.941Z,19.92
2019-02-11T12:00:57.066Z,19.92
2019-02-11T12:01:57.559Z,19.94
2019-02-11T12:03:06.533Z,19.95
2019-02-11T12:03:58.806Z,19.95
2019-02-11T12:04:57.081Z,19.95
2019-02-11T12:05:57.244Z,19.94
2019-02-11T12:06:57.091Z,19.95
2019-02-11T12:07:56.840Z,19.96
2019-02-11T12:08:59.824Z,19.98
2019-02-11T12:09:57.216Z,20
2019-02-11T12:10:56.906Z,19.96
2019-02-11T12:11:56.936Z,19.98
2019-02-11T12:12:56.739Z,19.97
2019-02-11T12:13:57.326Z,19.96
2019-02-11T12:14:56.514Z,19.97
2019-02-11T12:15:56.893Z,19.96
2019-02-11T12:17:03.815Z,19.94
2019-02-11T12:17:57.565Z,19.97
2019-02-11T12:18:57.399Z,19.92
2019-02-11T12:19:58.755Z,19.94
2019-02-11T12:20:57.476Z,19.94
2019-02-11T12:21:56.796Z,19.92
2019-02-11T12:22:57.027Z,19.92
2019-02-11T12:23:58.542Z,19.95
2019-02-11T12:24:56.782Z,19.92
2019-02-11T12:25:56.695Z,19.94
2019-02-11T12:26:57.100Z,19.94
2019-02-11T12:27:57.080Z,19.91
2019-02-11T12:28:56.866Z,19.91
2019-02-11T12:29:56.590Z,19.94
2019-02-11T12:30:57.159Z,19.94
2019-02-11T12:31:57.164Z,19.92
2019-02-11T12:32:57.378Z,19.9
2019-02-11T12:33:56.916Z,19.92
2019-02-11T12:34:56.437Z,19.91
2019-02-11T12:35:57.601Z,19.92
2019-02-11T12:36:57.620Z,19.9
2019-02-11T12:37:56.746Z,19.89
2019-02-11T12:38:56.779Z,19.9
2019-02-11T12:39:56.834Z,19.9
2019-02-11T12:40:56.832Z,19.94
2019-02-11T12:41:57.274Z,19.92
2019-02-11T12:42:56.683Z,19.94
2019-02-11T12:43:57.259Z,19.95
2019-02-11T12:44:57.045Z,19.95
2019-02-11T12:45:57.351Z,19.97
2019-02-11T12:47:15.609Z,19.98
2019-02-11T12:47:56.724Z,19.97
2019-02-11T12:48:56.761Z,19.98
2019-02-11T12:49:56.773Z,19.98
2019-02-11T12:50:57.216Z,19.99
2019-02-11T12:51:56.611Z,19.99
2019-02-11T12:52:56.656Z,19.97
2019-02-11T12:53:56.888Z,19.99
2019-02-11T12:54:56.819Z,19.99